Time;durP1;ratioP1;P1;durP2;ratioP2;P2;SDS_P1;SDS_P2;PMS_P1;PMS_P2;Temp;Humidity;BMP_temperature;BMP_pressure;BME280_temperature;BME280_humidity;BME280_pressure;Samples;Min_cycle;Max_cycle;Signal;HPM_P1;HPM_P2
2021/12/27 03:46:40;;;;;;;100.45;45.22;;;1.40;96.60;;;;;;5199919;24;20376;-80
2021/12/27 03:49:05;;;;;;;107.00;47.15;;;1.40;96.90;;;;;;4785233;30;20059;-80
2021/12/27 03:51:31;;;;;;;106.22;44.90;;;1.40;96.80;;;;;;4799944;29;20086;-80
2021/12/27 03:53:57;;;;;;;103.07;46.80;;;1.40;96.80;;;;;;4817190;29;20034;-80
2021/12/27 03:56:23;;;;;;;98.35;45.83;;;1.40;97.00;;;;;;4812556;29;20058;-80
2021/12/27 03:59:19;;;;;;;104.22;47.10;;;1.30;96.80;;;;;;4820304;29;20091;-80
2021/12/27 04:01:44;;;;;;;101.97;48.22;;;1.30;97.00;;;;;;4831617;29;20044;-80
2021/12/27 04:04:10;;;;;;;109.13;46.53;;;1.40;97.10;;;;;;4812746;29;20050;-80
2021/12/27 04:06:36;;;;;;;107.55;48.35;;;1.40;97.00;;;;;;4777248;29;20389;-80
2021/12/27 04:09:03;;;;;;;112.85;49.08;;;1.40;97.10;;;;;;4787701;30;20104;-80
2021/12/27 04:11:29;;;;;;;;;;;1.30;97.00;;;;;;4783240;29;20026;-80
2021/12/27 04:13:56;;;;;;;98.97;45.63;;;1.40;97.10;;;;;;4792236;29;19920;-80
2021/12/27 04:16:22;;;;;;;113.65;49.92;;;1.40;97.00;;;;;;4812276;29;20058;-80
2021/12/27 04:18:48;;;;;;;108.45;46.70;;;1.40;97.20;;;;;;4802015;29;20057;-80
2021/12/27 04:21:14;;;;;;;106.32;48.38;;;1.40;97.20;;;;;;4805740;29;20034;-80
2021/12/27 04:23:41;;;;;;;102.00;47.85;;;1.40;97.20;;;;;;4830660;29;20038;-80
2021/12/27 04:26:07;;;;;;;103.28;48.10;;;1.40;97.20;;;;;;4804177;29;20276;-80
2021/12/27 04:28:33;;;;;;;105.65;48.40;;;1.50;97.20;;;;;;4806991;29;20045;-80
2021/12/27 04:31:00;;;;;;;113.55;48.67;;;1.50;96.90;;;;;;4809249;29;20234;-80
2021/12/27 04:33:26;;;;;;;116.25;49.60;;;1.40;97.20;;;;;;4805572;29;20049;-80
2021/12/27 04:35:52;;;;;;;102.10;49.05;;;1.50;97.00;;;;;;4813102;29;20035;-80
2021/12/27 04:38:17;;;;;;;106.97;49.88;;;1.40;96.90;;;;;;4776825;29;20039;-80
2021/12/27 04:40:47;;;;;;;110.93;52.38;;;1.50;97.20;;;;;;4796466;29;20047;-80
2021/12/27 04:43:16;;;;;;;113.25;49.97;;;1.50;97.00;;;;;;4813660;29;20079;-80
2021/12/27 04:45:43;;;;;;;104.28;48.45;;;1.50;97.00;;;;;;4821212;29;20136;-80
2021/12/27 04:48:09;;;;;;;98.57;46.88;;;1.50;97.10;;;;;;4797351;29;20083;-80
2021/12/27 04:50:36;;;;;;;119.97;50.10;;;1.50;97.20;;;;;;4773281;29;20062;-80
2021/12/27 04:53:03;;;;;;;114.32;50.67;;;1.50;97.00;;;;;;4804256;29;20219;-81
2021/12/27 04:55:30;;;;;;;108.07;47.67;;;1.50;97.10;;;;;;4790928;29;20046;-80
2021/12/27 04:57:56;;;;;;;105.35;47.67;;;1.50;97.20;;;;;;4783133;29;20090;-80
2021/12/27 05:00:22;;;;;;;107.18;47.28;;;1.60;97.20;;;;;;4782092;29;20250;-80
2021/12/27 05:02:48;;;;;;;108.97;48.85;;;1.60;97.20;;;;;;4791635;29;20046;-80
2021/12/27 05:05:14;;;;;;;115.00;51.58;;;1.60;96.90;;;;;;4806973;29;20081;-80
2021/12/27 05:07:39;;;;;;;110.80;47.75;;;1.60;96.90;;;;;;4820163;29;20076;-80
2021/12/27 05:10:06;;;;;;;101.40;46.97;;;1.60;96.80;;;;;;4800779;29;20050;-80
2021/12/27 05:12:32;;;;;;;104.43;49.07;;;1.60;96.90;;;;;;4801763;29;20366;-80
2021/12/27 05:14:58;;;;;;;104.80;48.37;;;1.50;97.10;;;;;;4801076;29;20216;-81
2021/12/27 05:17:24;;;;;;;107.53;49.70;;;1.40;97.20;;;;;;4799254;29;20058;-80
2021/12/27 05:19:49;;;;;;;109.13;49.08;;;1.40;97.40;;;;;;4793341;29;20039;-80
2021/12/27 05:22:15;;;;;;;112.45;48.92;;;1.40;97.40;;;;;;4797493;29;20034;-80
2021/12/27 05:24:41;;;;;;;116.82;51.10;;;1.50;97.50;;;;;;4798428;29;20058;-80
2021/12/27 05:27:09;;;;;;;106.95;50.78;;;1.50;97.50;;;;;;4797760;29;20112;-80
2021/12/27 05:29:36;;;;;;;109.18;49.58;;;1.60;97.40;;;;;;4816285;29;20030;-80
2021/12/27 05:32:03;;;;;;;110.95;51.92;;;1.60;97.30;;;;;;4799813;29;20328;-80
2021/12/27 05:34:29;;;;;;;113.97;48.85;;;1.60;97.50;;;;;;4800869;29;20059;-80
2021/12/27 05:36:55;;;;;;;109.05;51.22;;;1.70;97.30;;;;;;4803241;29;20097;-80
2021/12/27 05:39:22;;;;;;;112.50;47.83;;;1.70;97.30;;;;;;4817816;29;20042;-80
2021/12/27 05:41:49;;;;;;;107.55;48.63;;;1.70;97.20;;;;;;4814944;29;20033;-80
2021/12/27 05:44:16;;;;;;;109.22;51.28;;;1.70;97.20;;;;;;4812513;29;20050;-80
2021/12/27 05:46:42;;;;;;;110.72;49.30;;;1.70;97.10;;;;;;4799515;29;20058;-81
2021/12/27 05:49:08;;;;;;;107.63;49.22;;;1.60;97.00;;;;;;4780525;29;20039;-80
2021/12/27 05:51:36;;;;;;;120.97;52.10;;;1.60;97.20;;;;;;4783159;29;20035;-80
2021/12/27 05:54:05;;;;;;;118.28;52.50;;;1.60;97.30;;;;;;4794648;29;20356;-80
2021/12/27 05:56:31;;;;;;;120.75;52.92;;;1.50;97.40;;;;;;4783199;29;20200;-80
2021/12/27 05:58:57;;;;;;;117.03;51.65;;;1.60;97.60;;;;;;4779565;29;20147;-80
2021/12/27 06:01:23;;;;;;;109.95;51.90;;;1.60;97.70;;;;;;4774104;29;20114;-81
2021/12/27 06:03:49;;;;;;;107.00;49.50;;;1.60;97.60;;;;;;4790381;29;20087;-80
2021/12/27 06:06:15;;;;;;;111.43;50.28;;;1.60;97.70;;;;;;4808113;29;20049;-80
2021/12/27 06:08:41;;;;;;;111.25;52.75;;;1.60;97.90;;;;;;4800418;29;20108;-80
2021/12/27 06:11:07;;;;;;;111.43;51.28;;;1.70;97.70;;;;;;4796812;29;20046;-80
2021/12/27 06:13:33;;;;;;;111.28;52.13;;;1.70;97.80;;;;;;4792783;29;20043;-81
2021/12/27 06:15:59;;;;;;;109.03;51.40;;;1.70;97.80;;;;;;4804188;29;20047;-81
2021/12/27 06:18:25;;;;;;;119.63;52.25;;;1.70;97.60;;;;;;4807288;29;20057;-81
2021/12/27 06:20:51;;;;;;;105.15;49.58;;;1.80;97.70;;;;;;4801487;29;20039;-81
2021/12/27 06:23:17;;;;;;;115.55;51.45;;;1.70;97.60;;;;;;4814604;29;20256;-81
2021/12/27 06:25:46;;;;;;;118.78;52.75;;;1.70;97.70;;;;;;4800817;29;20027;-81
2021/12/27 06:28:12;;;;;;;102.70;47.88;;;1.70;97.80;;;;;;4797532;29;20338;-80
2021/12/27 06:30:37;;;;;;;114.30;52.22;;;1.80;97.90;;;;;;4812804;29;20031;-81
2021/12/27 06:33:06;;;;;;;108.95;50.10;;;1.80;97.80;;;;;;4799234;29;20071;-81
2021/12/27 06:35:33;;;;;;;102.05;48.70;;;1.80;97.90;;;;;;4810352;29;20039;-81
2021/12/27 06:37:58;;;;;;;114.45;51.65;;;1.80;97.90;;;;;;4809548;29;20035;-81
2021/12/27 06:40:24;;;;;;;107.45;51.55;;;1.90;97.70;;;;;;4784080;29;20292;-81
2021/12/27 06:42:50;;;;;;;112.47;50.97;;;1.80;97.80;;;;;;4770951;29;20039;-81
2021/12/27 06:45:16;;;;;;;112.63;51.80;;;1.80;98.20;;;;;;4796545;29;20034;-81
2021/12/27 06:47:42;;;;;;;109.20;50.53;;;1.80;98.00;;;;;;4804430;29;20074;-81
2021/12/27 06:50:09;;;;;;;99.78;47.17;;;1.80;98.00;;;;;;4785132;29;20140;-81
2021/12/27 06:52:35;;;;;;;111.00;51.40;;;1.80;98.10;;;;;;4813350;29;20034;-81
2021/12/27 06:55:01;;;;;;;108.28;50.78;;;1.80;98.10;;;;;;4798063;29;20230;-81
2021/12/27 06:57:27;;;;;;;105.10;49.80;;;1.90;98.20;;;;;;4798741;29;20041;-81
2021/12/27 06:59:53;;;;;;;105.78;48.83;;;1.90;98.10;;;;;;4813258;29;20054;-81
2021/12/27 07:02:19;;;;;;;108.28;48.75;;;1.90;98.10;;;;;;4766525;29;20125;-81
2021/12/27 07:04:45;;;;;;;109.90;49.65;;;1.90;98.20;;;;;;4800402;29;20065;-81
2021/12/27 07:07:11;;;;;;;105.60;49.03;;;2.00;98.10;;;;;;4769262;29;20110;-81
2021/12/27 07:09:36;;;;;;;104.57;48.90;;;1.90;98.10;;;;;;4797280;29;20019;-81
2021/12/27 07:12:02;;;;;;;107.10;48.67;;;2.00;98.10;;;;;;4813557;29;20034;-81
2021/12/27 07:14:31;;;;;;;110.97;50.80;;;1.90;98.30;;;;;;4800235;29;20043;-81
2021/12/27 07:16:57;;;;;;;102.80;47.47;;;1.90;98.40;;;;;;4800584;29;20031;-81
2021/12/27 07:19:23;;;;;;;101.88;48.17;;;1.90;98.40;;;;;;4782475;29;20043;-81
2021/12/27 07:21:48;;;;;;;103.53;49.30;;;2.00;98.40;;;;;;4795068;29;20033;-81
2021/12/27 07:24:14;;;;;;;97.63;46.70;;;2.10;98.40;;;;;;4810012;29;20141;-81
2021/12/27 07:26:40;;;;;;;98.90;47.00;;;2.10;98.20;;;;;;4802080;29;20034;-81
2021/12/27 07:29:06;;;;;;;95.72;45.97;;;2.20;98.10;;;;;;4797246;29;20050;-81
2021/12/27 07:31:32;;;;;;;97.78;46.92;;;2.10;98.10;;;;;;4785523;29;20047;-81
2021/12/27 07:34:00;;;;;;;92.80;45.85;;;2.00;98.40;;;;;;4785876;29;20265;-81
2021/12/27 07:36:30;;;;;;;97.82;46.20;;;2.00;98.40;;;;;;4798337;29;20109;-81
2021/12/27 07:38:56;;;;;;;93.13;45.65;;;2.00;98.50;;;;;;4799388;29;20030;-81
2021/12/27 07:41:23;;;;;;;101.82;46.45;;;2.10;98.60;;;;;;4819671;29;20137;-80
2021/12/27 07:43:49;;;;;;;;;;;2.10;98.40;;;;;;4812063;29;20096;-80
2021/12/27 07:46:15;;;;;;;106.90;43.87;;;2.20;98.40;;;;;;4810946;29;19917;-80
2021/12/27 07:48:41;;;;;;;94.97;42.63;;;2.40;98.30;;;;;;4797729;29;20227;-81
2021/12/27 07:51:07;;;;;;;87.50;40.78;;;2.40;98.00;;;;;;4801976;29;20039;-81
2021/12/27 07:53:33;;;;;;;87.18;42.10;;;2.40;97.90;;;;;;4797734;29;20039;-81
2021/12/27 07:55:58;;;;;;;84.13;41.30;;;2.50;97.80;;;;;;4795517;29;20079;-81
2021/12/27 07:58:24;;;;;;;79.63;39.35;;;2.40;97.80;;;;;;4795745;29;20354;-81
2021/12/27 08:00:50;;;;;;;77.30;38.83;;;2.50;97.90;;;;;;4800427;29;20498;-81
2021/12/27 08:03:18;;;;;;;86.60;39.17;;;2.50;97.80;;;;;;4805111;29;20023;-81
2021/12/27 08:05:44;;;;;;;81.57;38.92;;;2.60;98.00;;;;;;4803946;29;20222;-81
2021/12/27 08:08:10;;;;;;;81.93;36.80;;;2.70;97.70;;;;;;4815227;29;20038;-81
2021/12/27 08:10:36;;;;;;;74.80;35.03;;;2.70;97.50;;;;;;4805094;29;20102;-81
2021/12/27 08:13:02;;;;;;;68.25;34.40;;;2.70;97.50;;;;;;4802920;29;20030;-81
2021/12/27 08:15:29;;;;;;;76.47;36.78;;;2.70;97.70;;;;;;4801347;29;20334;-81
2021/12/27 08:17:54;;;;;;;69.75;33.38;;;2.70;97.50;;;;;;4819821;29;20074;-81
2021/12/27 08:20:20;;;;;;;66.32;32.55;;;2.80;97.50;;;;;;4788437;29;20045;-81
2021/12/27 08:22:47;;;;;;;62.47;30.02;;;2.80;97.30;;;;;;4799837;29;20074;-81
2021/12/27 08:25:13;;;;;;;57.35;30.65;;;2.80;96.90;;;;;;4815723;29;20054;-81
2021/12/27 08:27:40;;;;;;;62.05;30.55;;;2.80;97.00;;;;;;4789372;29;20043;-81
2021/12/27 08:30:06;;;;;;;;;;;2.70;97.20;;;;;;4785848;29;20102;-81
2021/12/27 08:32:34;;;;;;;57.85;28.08;;;2.80;97.40;;;;;;4811439;29;19980;-81
2021/12/27 08:35:03;;;;;;;54.05;28.30;;;2.90;97.30;;;;;;4802553;29;20040;-81
2021/12/27 08:37:30;;;;;;;58.28;27.88;;;2.90;96.90;;;;;;4798024;29;20043;-80
2021/12/27 08:39:57;;;;;;;57.90;27.77;;;2.90;97.10;;;;;;4812997;29;20043;-81
2021/12/27 08:42:24;;;;;;;54.25;29.30;;;3.00;96.90;;;;;;4782228;29;20041;-80
2021/12/27 08:44:51;;;;;;;53.75;25.55;;;3.00;97.00;;;;;;4801573;29;20042;-81
2021/12/27 08:47:17;;;;;;;59.10;25.30;;;3.00;96.90;;;;;;4798358;29;20065;-81
2021/12/27 08:49:43;;;;;;;49.17;24.75;;;3.10;96.80;;;;;;4801640;29;20050;-81
2021/12/27 08:52:09;;;;;;;50.10;23.58;;;3.10;96.60;;;;;;4803638;29;20345;-81
2021/12/27 08:54:35;;;;;;;43.53;23.50;;;3.10;96.60;;;;;;4803609;29;20074;-81
2021/12/27 08:57:04;;;;;;;44.53;24.13;;;3.10;96.80;;;;;;4808688;29;20045;-81
2021/12/27 08:59:30;;;;;;;42.50;22.63;;;3.10;96.70;;;;;;4804565;29;20338;-82
2021/12/27 09:01:56;;;;;;;39.37;20.10;;;3.20;96.80;;;;;;4798795;29;20105;-82
2021/12/27 09:04:23;;;;;;;38.33;20.23;;;3.30;96.70;;;;;;4800037;29;20304;-81
2021/12/27 09:06:49;;;;;;;37.50;20.17;;;3.30;96.40;;;;;;4799972;29;20130;-82
2021/12/27 09:09:15;;;;;;;40.00;19.67;;;3.40;96.60;;;;;;4806977;29;20062;-82
2021/12/27 09:11:42;;;;;;;33.43;20.33;;;3.40;96.50;;;;;;4802419;29;20276;-81
2021/12/27 09:14:08;;;;;;;34.45;18.17;;;3.50;96.40;;;;;;4816902;29;20341;-81
2021/12/27 09:16:34;;;;;;;35.30;18.30;;;3.60;96.20;;;;;;4798326;29;20039;-81
2021/12/27 09:19:00;;;;;;;32.83;17.92;;;3.60;96.00;;;;;;4799936;29;20039;-81
2021/12/27 09:21:25;;;;;;;32.20;18.48;;;3.70;95.90;;;;;;4798659;29;20031;-81
2021/12/27 09:23:52;;;;;;;36.70;18.55;;;3.80;96.10;;;;;;4803396;29;20022;-81
2021/12/27 09:26:17;;;;;;;32.25;18.25;;;3.80;95.50;;;;;;4800256;29;20031;-81
2021/12/27 09:28:43;;;;;;;33.05;17.63;;;3.80;95.40;;;;;;4786938;29;20259;-80
2021/12/27 09:31:09;;;;;;;36.95;20.05;;;4.00;95.80;;;;;;4814204;29;20031;-81
2021/12/27 09:33:35;;;;;;;39.63;18.48;;;4.10;95.50;;;;;;4815134;29;20330;-81
2021/12/27 09:36:01;;;;;;;35.90;18.60;;;4.10;95.20;;;;;;4803497;29;20037;-81
2021/12/27 09:38:27;;;;;;;35.72;19.50;;;4.20;95.60;;;;;;4799815;29;20099;-81
2021/12/27 09:40:53;;;;;;;37.10;19.08;;;4.30;95.40;;;;;;4787716;29;20479;-81
2021/12/27 09:43:19;;;;;;;36.55;19.27;;;4.40;95.00;;;;;;4796811;29;20031;-81
2021/12/27 09:45:45;;;;;;;38.67;18.70;;;4.50;95.00;;;;;;4799628;29;20055;-81
2021/12/27 09:48:13;;;;;;;33.70;18.98;;;4.50;94.60;;;;;;4815686;29;20361;-81
2021/12/27 09:50:53;;;;;;;37.90;19.73;;;4.60;94.70;;;;;;4798731;29;20063;-81
2021/12/27 09:53:19;;;;;;;38.35;19.85;;;4.60;94.40;;;;;;4795507;30;20035;-82
2021/12/27 09:55:45;;;;;;;38.90;18.45;;;4.60;94.60;;;;;;4773561;29;20231;-82
2021/12/27 09:58:11;;;;;;;39.67;20.83;;;4.60;94.20;;;;;;4810755;29;20035;-81
2021/12/27 10:00:37;;;;;;;44.70;21.25;;;4.50;94.00;;;;;;4784823;29;20260;-82
2021/12/27 10:03:05;;;;;;;40.17;19.70;;;4.60;94.70;;;;;;4804984;29;20018;-82
2021/12/27 10:05:32;;;;;;;33.60;19.63;;;4.60;94.20;;;;;;4801078;29;20334;-82
2021/12/27 10:07:58;;;;;;;;;;;4.60;93.90;;;;;;4795856;29;20033;-82
2021/12/27 10:10:24;;;;;;;40.33;19.20;;;4.50;94.00;;;;;;4810745;29;20205;-81
2021/12/27 10:12:50;;;;;;;41.15;19.58;;;4.50;94.30;;;;;;4813967;29;20065;-81
2021/12/27 10:15:22;;;;;;;36.97;19.63;;;4.40;94.30;;;;;;4790976;29;20160;-82
2021/12/27 10:17:49;;;;;;;47.45;21.30;;;4.40;94.50;;;;;;4794320;29;20038;-82
2021/12/27 10:20:24;;;;;;;39.38;20.33;;;4.40;94.50;;;;;;4787089;29;20260;-81
2021/12/27 10:22:53;;;;;;;38.40;19.77;;;4.40;94.50;;;;;;4799978;29;20069;-81
2021/12/27 10:25:22;;;;;;;31.55;18.70;;;4.40;94.40;;;;;;4808592;29;20047;-81
2021/12/27 10:27:49;;;;;;;39.78;21.25;;;4.50;94.40;;;;;;4798219;29;20035;-82
2021/12/27 10:30:19;;;;;;;44.08;20.58;;;4.60;94.20;;;;;;4821007;29;20030;-81
2021/12/27 10:33:06;;;;;;;41.70;21.95;;;4.60;94.20;;;;;;4827800;29;20059;-81
2021/12/27 10:35:41;;;;;;;36.08;19.00;;;4.60;93.80;;;;;;4827708;29;20030;-81
2021/12/27 10:38:19;;;;;;;47.53;21.30;;;4.60;94.00;;;;;;4824533;29;20030;-81
2021/12/27 10:40:55;;;;;;;38.38;19.77;;;4.70;94.10;;;;;;4823623;29;20034;-81
2021/12/27 10:43:36;;;;;;;39.72;19.58;;;4.60;93.80;;;;;;4812407;29;20197;-81
2021/12/27 10:46:03;;;;;;;39.05;19.00;;;4.70;93.70;;;;;;4830335;29;20055;-81
2021/12/27 10:48:34;;;;;;;38.88;20.30;;;4.70;94.00;;;;;;4826549;29;20035;-83
2021/12/27 10:51:01;;;;;;;35.05;20.15;;;4.60;93.80;;;;;;4786451;29;20034;-82
2021/12/27 10:53:27;;;;;;;34.50;19.83;;;4.60;93.50;;;;;;4814313;29;20039;-81
2021/12/27 10:55:54;;;;;;;34.83;19.02;;;4.40;94.10;;;;;;4813410;29;20104;-81
2021/12/27 10:58:27;;;;;;;41.97;21.10;;;4.40;94.40;;;;;;4795370;29;20046;-81
2021/12/27 11:00:59;;;;;;;42.03;20.90;;;4.40;94.80;;;;;;4817311;29;20042;-81
2021/12/27 11:03:28;;;;;;;38.38;19.13;;;4.40;94.70;;;;;;4828607;29;20281;-81
2021/12/27 11:05:55;;;;;;;37.88;19.63;;;4.50;94.50;;;;;;4812885;29;20035;-81
2021/12/27 11:08:21;;;;;;;42.85;20.48;;;4.60;94.70;;;;;;4814009;29;20033;-81
2021/12/27 11:10:46;;;;;;;44.50;21.25;;;4.60;94.20;;;;;;4788515;29;20035;-81
2021/12/27 11:13:12;;;;;;;43.25;20.33;;;4.70;94.60;;;;;;4771027;29;20038;-81
2021/12/27 11:15:40;;;;;;;40.85;20.58;;;4.70;94.00;;;;;;4799258;29;20069;-80
2021/12/27 11:18:06;;;;;;;41.97;22.30;;;4.70;94.50;;;;;;4816399;29;20268;-80
2021/12/27 11:20:34;;;;;;;40.42;21.10;;;4.70;93.80;;;;;;4796378;29;20122;-80
2021/12/27 11:23:01;;;;;;;39.85;20.52;;;4.60;93.90;;;;;;4793924;29;20032;-80
2021/12/27 11:25:32;;;;;;;43.45;21.65;;;4.60;94.30;;;;;;4802486;29;20365;-80
2021/12/27 11:27:59;;;;;;;42.60;22.73;;;4.60;94.10;;;;;;4810075;29;20035;-81
2021/12/27 11:30:26;;;;;;;;;;;4.60;94.60;;;;;;4801417;29;20035;-81
2021/12/27 11:33:04;;;;;;;45.05;21.77;;;4.50;94.00;;;;;;4802466;29;20142;-81
2021/12/27 11:35:38;;;;;;;45.70;23.17;;;4.60;94.50;;;;;;4800229;29;20046;-81
2021/12/27 11:38:05;;;;;;;45.05;20.85;;;4.70;94.70;;;;;;4805448;29;20061;-81
2021/12/27 11:40:47;;;;;;;46.17;22.98;;;4.80;93.60;;;;;;4811676;29;20043;-80
2021/12/27 11:43:13;;;;;;;40.17;21.50;;;4.70;93.70;;;;;;4819455;29;20046;-81
2021/12/27 11:45:52;;;;;;;48.58;24.50;;;4.60;94.00;;;;;;4799871;29;20073;-81
2021/12/27 11:48:25;;;;;;;43.40;22.98;;;4.70;94.40;;;;;;4803768;29;20034;-80
2021/12/27 11:50:56;;;;;;;43.67;21.45;;;4.90;94.60;;;;;;4817640;29;20224;-80
2021/12/27 11:53:44;;;;;;;46.08;22.65;;;5.10;93.40;;;;;;4801005;29;20031;-81
2021/12/27 11:56:15;;;;;;;56.38;26.30;;;4.90;92.90;;;;;;4812623;29;20070;-81
2021/12/27 11:58:44;;;;;;;50.90;24.38;;;4.90;93.00;;;;;;4801404;29;20331;-81
2021/12/27 12:01:23;;;;;;;43.60;23.70;;;4.90;93.60;;;;;;4805081;29;20035;-81
2021/12/27 12:03:50;;;;;;;42.30;23.10;;;4.90;93.30;;;;;;4814143;29;20102;-81
2021/12/27 12:06:42;;;;;;;51.30;24.58;;;4.90;93.30;;;;;;4800459;29;20118;-81
2021/12/27 12:09:19;;;;;;;42.45;21.45;;;4.90;93.70;;;;;;4802453;29;20042;-81
2021/12/27 12:11:46;;;;;;;;;;;5.00;93.40;;;;;;4806277;29;20031;-81
2021/12/27 12:14:28;;;;;;;;;;;4.90;93.30;;;;;;4816095;29;20392;-81
2021/12/27 12:16:55;;;;;;;41.97;21.20;;;4.80;93.90;;;;;;4822231;29;19979;-81
2021/12/27 12:19:41;;;;;;;46.10;23.25;;;4.90;93.80;;;;;;4800242;29;20047;-81
2021/12/27 12:22:08;;;;;;;43.33;22.92;;;4.90;94.10;;;;;;4810597;29;20039;-81
2021/12/27 12:24:34;;;;;;;38.92;20.85;;;5.00;94.00;;;;;;4804964;29;20330;-81
2021/12/27 12:27:10;;;;;;;43.85;22.85;;;4.90;93.60;;;;;;4800009;29;20115;-81
2021/12/27 12:29:45;;;;;;;45.63;23.23;;;4.90;94.20;;;;;;4798304;29;20331;-81
2021/12/27 12:32:13;;;;;;;47.90;24.75;;;4.90;94.50;;;;;;4805865;29;20046;-81
2021/12/27 12:34:40;;;;;;;47.25;24.02;;;5.00;94.30;;;;;;4803347;29;20113;-81
2021/12/27 12:37:11;;;;;;;48.25;24.23;;;5.10;92.50;;;;;;4816898;29;20058;-81
2021/12/27 12:39:44;;;;;;;48.42;22.08;;;5.20;91.20;;;;;;4800370;29;20038;-81
2021/12/27 12:42:16;;;;;;;48.10;22.27;;;5.20;91.10;;;;;;4813362;29;20042;-81
2021/12/27 12:45:05;;;;;;;48.47;20.95;;;5.30;89.00;;;;;;4821588;29;20031;-81
2021/12/27 12:47:39;;;;;;;43.17;21.80;;;5.30;89.30;;;;;;4814890;29;20370;-81
2021/12/27 12:50:20;;;;;;;47.13;22.42;;;5.30;87.80;;;;;;4806472;29;20071;-82
2021/12/27 12:52:58;;;;;;;47.95;21.17;;;5.30;88.10;;;;;;4805229;29;20118;-81
2021/12/27 12:55:27;;;;;;;55.53;33.67;;;5.30;87.00;;;;;;4807467;29;20030;-81
2021/12/27 12:57:52;;;;;;;46.97;22.42;;;5.30;87.30;;;;;;4799131;29;20035;-81
2021/12/27 13:00:24;;;;;;;46.90;23.20;;;5.20;87.40;;;;;;4800769;29;20059;-81
2021/12/27 13:02:50;;;;;;;44.22;21.67;;;5.20;86.30;;;;;;4817323;29;20074;-81
2021/12/27 13:05:18;;;;;;;45.75;21.08;;;5.20;86.00;;;;;;4800200;29;20054;-81
2021/12/27 13:07:53;;;;;;;40.78;20.25;;;5.20;86.80;;;;;;4820547;29;20262;-81
2021/12/27 13:10:31;;;;;;;45.45;20.25;;;5.20;85.70;;;;;;4797170;29;20035;-82
2021/12/27 13:13:22;;;;;;;40.60;20.83;;;5.20;85.70;;;;;;4818402;29;20039;-80
2021/12/27 13:16:03;;;;;;;45.55;21.58;;;5.30;85.20;;;;;;4799519;29;20050;-80
2021/12/27 13:18:31;;;;;;;42.67;19.70;;;5.20;84.90;;;;;;4802464;29;20041;-82
2021/12/27 13:21:09;;;;;;;43.22;20.63;;;5.20;85.00;;;;;;4803373;29;20039;-81
2021/12/27 13:23:39;;;;;;;50.25;24.65;;;5.30;85.40;;;;;;4798619;29;20038;-81
2021/12/27 13:26:13;;;;;;;44.28;24.95;;;5.30;85.60;;;;;;4814934;29;20107;-81
2021/12/27 13:28:47;;;;;;;48.25;24.95;;;5.40;85.30;;;;;;4799057;29;20080;-81
2021/12/27 13:31:15;;;;;;;48.55;24.50;;;5.40;85.80;;;;;;4807249;29;20031;-82
2021/12/27 13:33:57;;;;;;;54.38;25.17;;;5.40;86.10;;;;;;4797756;29;20354;-81
2021/12/27 13:36:38;;;;;;;61.92;28.17;;;5.30;86.10;;;;;;4800884;29;20330;-81
2021/12/27 13:39:06;;;;;;;66.20;29.92;;;5.30;87.70;;;;;;4824503;29;20371;-81
2021/12/27 13:41:52;;;;;;;66.63;31.90;;;5.30;88.20;;;;;;4815427;29;20076;-81
2021/12/27 13:44:30;;;;;;;57.63;26.33;;;5.30;89.30;;;;;;4823234;29;20357;-82
2021/12/27 13:47:01;;;;;;;54.67;27.10;;;5.30;87.60;;;;;;4817261;29;20074;-81
2021/12/27 13:49:27;;;;;;;61.22;27.13;;;5.20;88.00;;;;;;4803551;29;20035;-81
2021/12/27 13:52:17;;;;;;;60.83;28.75;;;5.10;88.70;;;;;;4798489;29;20050;-82
2021/12/27 13:54:46;;;;;;;54.90;28.30;;;5.00;90.50;;;;;;4814314;29;20353;-82
2021/12/27 13:57:12;;;;;;;59.17;28.95;;;4.90;91.30;;;;;;4819866;29;20350;-81
2021/12/27 13:59:39;;;;;;;64.15;28.55;;;4.90;91.70;;;;;;4799751;29;20054;-81
2021/12/27 14:02:06;;;;;;;51.30;27.38;;;4.80;92.20;;;;;;4798823;29;20045;-81
2021/12/27 14:04:33;;;;;;;71.13;31.70;;;4.70;92.90;;;;;;4805657;29;20211;-81
2021/12/27 14:07:05;;;;;;;60.13;30.65;;;4.60;93.00;;;;;;4806123;29;20267;-82
2021/12/27 14:09:33;;;;;;;61.72;30.13;;;4.60;93.30;;;;;;4813860;29;20440;-81
2021/12/27 14:12:05;;;;;;;61.20;30.40;;;4.40;93.90;;;;;;4803810;29;20030;-82
2021/12/27 14:14:38;;;;;;;63.28;30.75;;;4.40;94.00;;;;;;4814822;29;20039;-81
2021/12/27 14:17:18;;;;;;;61.13;29.02;;;4.30;94.10;;;;;;4808377;29;20027;-81
2021/12/27 14:19:47;;;;;;;64.18;29.30;;;4.40;94.10;;;;;;4797347;29;20039;-81
2021/12/27 14:22:20;;;;;;;61.95;31.38;;;4.30;94.10;;;;;;4814183;29;20075;-82
2021/12/27 14:24:58;;;;;;;69.22;34.70;;;4.30;94.10;;;;;;4815614;29;20263;-81
2021/12/27 14:27:42;;;;;;;59.85;29.63;;;4.20;94.30;;;;;;4802564;29;20322;-81
2021/12/27 14:30:32;;;;;;;62.67;31.95;;;4.20;94.20;;;;;;4812160;29;20042;-81
2021/12/27 14:33:00;;;;;;;79.50;43.08;;;4.20;94.20;;;;;;4813888;29;20245;-82
2021/12/27 14:35:28;;;;;;;82.90;40.15;;;4.20;94.30;;;;;;4802337;29;20109;-82
2021/12/27 14:37:59;;;;;;;80.15;38.10;;;4.10;94.30;;;;;;4814883;29;20035;-81
2021/12/27 14:40:26;;;;;;;65.28;32.42;;;4.10;94.30;;;;;;4802846;29;20075;-82
2021/12/27 14:42:54;;;;;;;66.88;29.80;;;4.00;94.20;;;;;;4794326;29;20039;-82
2021/12/27 14:45:21;;;;;;;56.53;27.50;;;4.00;94.20;;;;;;4817104;29;20047;-81
2021/12/27 14:47:48;;;;;;;56.38;28.15;;;3.90;94.10;;;;;;4814410;29;20212;-82
2021/12/27 14:50:15;;;;;;;60.35;26.85;;;3.90;94.00;;;;;;4798842;29;20039;-82
2021/12/27 14:52:41;;;;;;;;;;;3.80;93.70;;;;;;4814866;29;20050;-81
2021/12/27 14:55:08;;;;;;;48.33;23.77;;;3.80;93.20;;;;;;4796074;29;20165;-81
2021/12/27 14:57:35;;;;;;;51.38;23.90;;;3.70;92.80;;;;;;4802614;29;20046;-82
2021/12/27 15:00:04;;;;;;;50.15;23.65;;;3.70;92.50;;;;;;4805632;29;20339;-81
2021/12/27 15:02:29;;;;;;;45.72;21.25;;;3.70;92.50;;;;;;4795797;29;20051;-81
2021/12/27 15:04:55;;;;;;;45.75;20.73;;;3.60;92.10;;;;;;4799976;29;20045;-82
2021/12/27 15:07:21;;;;;;;49.83;22.48;;;3.60;92.00;;;;;;4804064;29;20043;-82
2021/12/27 15:09:48;;;;;;;47.78;20.00;;;3.50;91.50;;;;;;4804321;29;20030;-82
2021/12/27 15:12:14;;;;;;;39.85;19.40;;;3.50;91.70;;;;;;4770126;29;20041;-81
2021/12/27 15:14:40;;;;;;;47.72;20.98;;;3.50;91.50;;;;;;4810782;29;20114;-81
2021/12/27 15:17:06;;;;;;;43.08;20.80;;;3.40;91.20;;;;;;4811657;29;20043;-81
2021/12/27 15:19:32;;;;;;;48.63;20.38;;;3.40;91.20;;;;;;4797468;29;20027;-82
2021/12/27 15:21:58;;;;;;;44.42;19.23;;;3.40;91.40;;;;;;4803822;29;20133;-81
2021/12/27 15:24:23;;;;;;;41.92;19.50;;;3.30;91.10;;;;;;4796785;29;20054;-81
2021/12/27 15:26:49;;;;;;;48.85;22.38;;;3.20;91.20;;;;;;4798164;29;20116;-81
2021/12/27 15:29:15;;;;;;;74.60;36.17;;;3.20;91.20;;;;;;4796330;29;20042;-81
2021/12/27 15:31:41;;;;;;;51.35;24.98;;;3.20;91.30;;;;;;4784992;29;20087;-81
2021/12/27 15:34:07;;;;;;;42.47;20.65;;;3.20;91.40;;;;;;4783106;29;20039;-81
2021/12/27 15:36:33;;;;;;;48.05;20.67;;;3.10;91.30;;;;;;4795236;29;20042;-81
2021/12/27 15:39:00;;;;;;;42.40;19.33;;;3.10;91.30;;;;;;4810606;29;20046;-81
2021/12/27 15:41:30;;;;;;;43.28;21.15;;;3.10;91.30;;;;;;4797580;29;20130;-81
2021/12/27 15:43:57;;;;;;;44.28;21.60;;;3.10;91.50;;;;;;4814730;29;20043;-81
2021/12/27 15:46:23;;;;;;;54.30;22.65;;;3.00;91.70;;;;;;4825801;29;20238;-81
2021/12/27 15:48:49;;;;;;;43.75;21.52;;;3.00;91.70;;;;;;4813884;29;20031;-81
2021/12/27 15:51:16;;;;;;;48.47;26.30;;;2.90;91.80;;;;;;4798558;29;20045;-81
2021/12/27 15:53:42;;;;;;;56.97;27.65;;;2.90;92.00;;;;;;4788056;29;20287;-81
2021/12/27 15:56:10;;;;;;;68.18;30.92;;;2.80;92.30;;;;;;4786558;29;20042;-81
2021/12/27 15:58:41;;;;;;;59.53;26.48;;;2.70;92.50;;;;;;4797528;29;20096;-81
2021/12/27 16:01:08;;;;;;;54.45;26.58;;;2.70;92.70;;;;;;4784685;29;20038;-81
2021/12/27 16:03:34;;;;;;;56.50;28.38;;;2.70;92.90;;;;;;4802779;29;20104;-81
2021/12/27 16:06:10;;;;;;;53.87;27.37;;;2.60;93.10;;;;;;4803593;29;20330;-81
2021/12/27 16:08:36;;;;;;;53.28;26.02;;;2.60;93.30;;;;;;4796935;29;20046;-81
2021/12/27 16:11:03;;;;;;;54.97;25.90;;;2.60;93.40;;;;;;4797578;29;20027;-81
2021/12/27 16:13:35;;;;;;;55.63;25.35;;;2.50;93.50;;;;;;4797181;29;20027;-81
2021/12/27 16:16:06;;;;;;;52.47;24.27;;;2.40;93.50;;;;;;4808066;29;20042;-81
2021/12/27 16:18:34;;;;;;;51.05;25.88;;;2.40;93.70;;;;;;4796806;29;20042;-81
2021/12/27 16:21:08;;;;;;;;;;;2.40;93.70;;;;;;4764000;29;20066;-81
2021/12/27 16:23:36;;;;;;;;;;;2.30;93.80;;;;;;4795755;29;19951;-81
2021/12/27 16:26:01;;;;;;;49.73;22.90;;;2.30;93.90;;;;;;4805494;29;19913;-81
2021/12/27 16:28:27;;;;;;;51.63;23.88;;;2.30;94.00;;;;;;4800285;29;20030;-81
2021/12/27 16:30:53;;;;;;;50.20;22.70;;;2.20;94.00;;;;;;4786985;29;20043;-81